Terminal Aerodrome Forecast
Issued by NWS

Home | Current Version | Previous Version | Text Only | Print | Product List | Glossary On
Versions: 1 2 3 4 5 6 7 8 9 10 11 12 13
801
FTUS41 KCAR 182331
TAFHUL
TAF
KHUL 182331Z 1900/1924 13004KT P6SM OVC050
     FM190430 15005KT P6SM OVC030
     FM190630 16005KT 2SM -SN OVC025
     FM190800 17005KT 1SM -SN BR OVC015
     FM191400 20007KT 2SM -SN OVC010
     FM191600 21007KT 5SM -SHSN OVC012
     FM192100 VRB03KT P6SM BKN018=

USA.gov is the U.S. government's official web portal to all federal, state and local government web resources and services.